sensor_id;sensor_type;location;lat;lon;timestamp;temperature;humidity
37518;DHT22;23366;52.498;13.446;2023-07-13T00:01:16;21.80;77.50
37518;DHT22;23366;52.498;13.446;2023-07-13T00:03:42;21.80;77.70
37518;DHT22;23366;52.498;13.446;2023-07-13T00:06:24;21.70;77.40
37518;DHT22;23366;52.498;13.446;2023-07-13T00:08:55;21.70;77.50
37518;DHT22;23366;52.498;13.446;2023-07-13T00:11:21;21.70;77.50
37518;DHT22;23366;52.498;13.446;2023-07-13T00:13:48;21.60;77.70
37518;DHT22;23366;52.498;13.446;2023-07-13T00:16:14;21.60;77.90
37518;DHT22;23366;52.498;13.446;2023-07-13T00:18:40;21.60;78.00
37518;DHT22;23366;52.498;13.446;2023-07-13T00:21:05;21.50;78.00
37518;DHT22;23366;52.498;13.446;2023-07-13T00:23:35;21.50;78.40
37518;DHT22;23366;52.498;13.446;2023-07-13T00:26:02;21.40;78.60
37518;DHT22;23366;52.498;13.446;2023-07-13T00:28:28;21.40;78.70
37518;DHT22;23366;52.498;13.446;2023-07-13T00:30:54;21.40;78.70
37518;DHT22;23366;52.498;13.446;2023-07-13T00:33:19;21.30;78.70
37518;DHT22;23366;52.498;13.446;2023-07-13T00:35:45;21.30;79.20
37518;DHT22;23366;52.498;13.446;2023-07-13T00:38:11;21.30;78.90
37518;DHT22;23366;52.498;13.446;2023-07-13T00:40:36;21.20;78.90
37518;DHT22;23366;52.498;13.446;2023-07-13T00:43:02;21.20;79.20
37518;DHT22;23366;52.498;13.446;2023-07-13T00:47:55;21.20;79.00
37518;DHT22;23366;52.498;13.446;2023-07-13T00:50:22;21.10;79.00
37518;DHT22;23366;52.498;13.446;2023-07-13T00:52:52;21.20;78.80
37518;DHT22;23366;52.498;13.446;2023-07-13T00:55:21;21.10;78.70
37518;DHT22;23366;52.498;13.446;2023-07-13T00:57:46;21.10;78.60
37518;DHT22;23366;52.498;13.446;2023-07-13T01:00:12;21.10;79.10
37518;DHT22;23366;52.498;13.446;2023-07-13T01:02:43;21.00;79.00
37518;DHT22;23366;52.498;13.446;2023-07-13T01:05:13;21.00;79.00
37518;DHT22;23366;52.498;13.446;2023-07-13T01:07:39;21.00;79.00
37518;DHT22;23366;52.498;13.446;2023-07-13T01:10:06;20.90;79.10
37518;DHT22;23366;52.498;13.446;2023-07-13T01:12:32;20.90;79.10
37518;DHT22;23366;52.498;13.446;2023-07-13T01:14:59;20.80;79.00
37518;DHT22;23366;52.498;13.446;2023-07-13T01:17:25;20.90;79.10
37518;DHT22;23366;52.498;13.446;2023-07-13T01:19:51;20.80;79.40
37518;DHT22;23366;52.498;13.446;2023-07-13T01:22:19;20.80;79.70
37518;DHT22;23366;52.498;13.446;2023-07-13T01:24:50;20.80;79.60
37518;DHT22;23366;52.498;13.446;2023-07-13T01:27:20;20.80;80.00
37518;DHT22;23366;52.498;13.446;2023-07-13T01:29:46;20.70;79.70
37518;DHT22;23366;52.498;13.446;2023-07-13T01:32:16;20.70;79.70
37518;DHT22;23366;52.498;13.446;2023-07-13T01:34:42;20.70;79.90
37518;DHT22;23366;52.498;13.446;2023-07-13T01:37:09;20.70;80.20
37518;DHT22;23366;52.498;13.446;2023-07-13T01:39:35;20.60;80.20
37518;DHT22;23366;52.498;13.446;2023-07-13T01:42:01;20.60;80.10
37518;DHT22;23366;52.498;13.446;2023-07-13T01:44:26;20.60;80.80
37518;DHT22;23366;52.498;13.446;2023-07-13T01:46:52;20.60;80.10
37518;DHT22;23366;52.498;13.446;2023-07-13T01:49:17;20.60;80.20
37518;DHT22;23366;52.498;13.446;2023-07-13T01:51:43;20.60;80.90
37518;DHT22;23366;52.498;13.446;2023-07-13T01:54:08;20.50;81.10
37518;DHT22;23366;52.498;13.446;2023-07-13T01:56:34;20.50;81.10
37518;DHT22;23366;52.498;13.446;2023-07-13T01:58:59;20.50;81.10
37518;DHT22;23366;52.498;13.446;2023-07-13T02:01:25;20.50;81.30
37518;DHT22;23366;52.498;13.446;2023-07-13T02:03:50;20.50;81.30
37518;DHT22;23366;52.498;13.446;2023-07-13T02:06:16;20.50;82.20
37518;DHT22;23366;52.498;13.446;2023-07-13T02:08:42;20.50;82.00
37518;DHT22;23366;52.498;13.446;2023-07-13T02:11:08;20.50;82.10
37518;DHT22;23366;52.498;13.446;2023-07-13T02:13:34;20.40;82.10
37518;DHT22;23366;52.498;13.446;2023-07-13T02:16:00;20.40;82.10
37518;DHT22;23366;52.498;13.446;2023-07-13T02:18:25;20.40;82.30
37518;DHT22;23366;52.498;13.446;2023-07-13T02:20:54;20.40;82.70
37518;DHT22;23366;52.498;13.446;2023-07-13T02:23:19;20.30;82.60
37518;DHT22;23366;52.498;13.446;2023-07-13T02:25:45;20.30;82.60
37518;DHT22;23366;52.498;13.446;2023-07-13T02:28:11;20.30;83.00
37518;DHT22;23366;52.498;13.446;2023-07-13T02:30:37;20.30;83.30
37518;DHT22;23366;52.498;13.446;2023-07-13T02:33:03;20.20;83.40
37518;DHT22;23366;52.498;13.446;2023-07-13T02:35:29;20.20;83.60
37518;DHT22;23366;52.498;13.446;2023-07-13T02:37:54;20.20;83.80
37518;DHT22;23366;52.498;13.446;2023-07-13T02:40:20;20.20;83.90
37518;DHT22;23366;52.498;13.446;2023-07-13T02:42:45;20.10;84.10
37518;DHT22;23366;52.498;13.446;2023-07-13T02:45:11;20.10;84.30
37518;DHT22;23366;52.498;13.446;2023-07-13T02:47:40;20.10;84.50
37518;DHT22;23366;52.498;13.446;2023-07-13T02:50:07;20.10;84.90
37518;DHT22;23366;52.498;13.446;2023-07-13T02:52:33;20.10;85.00
37518;DHT22;23366;52.498;13.446;2023-07-13T02:54:58;20.00;85.10
37518;DHT22;23366;52.498;13.446;2023-07-13T02:57:24;20.00;85.20
37518;DHT22;23366;52.498;13.446;2023-07-13T02:59:49;20.00;85.30
37518;DHT22;23366;52.498;13.446;2023-07-13T03:02:15;20.00;85.60
37518;DHT22;23366;52.498;13.446;2023-07-13T03:04:41;20.00;85.60
37518;DHT22;23366;52.498;13.446;2023-07-13T03:07:07;20.00;85.80
37518;DHT22;23366;52.498;13.446;2023-07-13T03:09:34;19.90;86.00
37518;DHT22;23366;52.498;13.446;2023-07-13T03:12:00;19.90;86.30
37518;DHT22;23366;52.498;13.446;2023-07-13T03:14:26;19.90;86.50
37518;DHT22;23366;52.498;13.446;2023-07-13T03:16:51;19.80;86.70
37518;DHT22;23366;52.498;13.446;2023-07-13T03:19:17;19.80;86.60
37518;DHT22;23366;52.498;13.446;2023-07-13T03:21:43;19.90;86.90
37518;DHT22;23366;52.498;13.446;2023-07-13T03:24:09;19.80;86.70
37518;DHT22;23366;52.498;13.446;2023-07-13T03:26:35;19.80;86.90
37518;DHT22;23366;52.498;13.446;2023-07-13T03:29:00;19.80;87.00
37518;DHT22;23366;52.498;13.446;2023-07-13T03:31:29;19.90;87.50
37518;DHT22;23366;52.498;13.446;2023-07-13T03:33:55;19.90;87.00
37518;DHT22;23366;52.498;13.446;2023-07-13T03:36:24;19.90;86.90
37518;DHT22;23366;52.498;13.446;2023-07-13T03:38:53;19.90;86.80
37518;DHT22;23366;52.498;13.446;2023-07-13T03:41:19;20.00;86.90
37518;DHT22;23366;52.498;13.446;2023-07-13T03:43:46;20.00;87.10
37518;DHT22;23366;52.498;13.446;2023-07-13T03:46:16;20.10;87.00
37518;DHT22;23366;52.498;13.446;2023-07-13T03:48:44;20.10;86.80
37518;DHT22;23366;52.498;13.446;2023-07-13T03:51:11;20.20;86.80
37518;DHT22;23366;52.498;13.446;2023-07-13T03:53:40;20.20;86.50
37518;DHT22;23366;52.498;13.446;2023-07-13T03:56:06;20.30;86.40
37518;DHT22;23366;52.498;13.446;2023-07-13T03:58:34;20.40;86.10
37518;DHT22;23366;52.498;13.446;2023-07-13T04:01:01;20.50;85.80
37518;DHT22;23366;52.498;13.446;2023-07-13T04:03:27;20.60;85.50
37518;DHT22;23366;52.498;13.446;2023-07-13T04:05:54;20.70;85.40
37518;DHT22;23366;52.498;13.446;2023-07-13T04:08:20;20.80;85.40
37518;DHT22;23366;52.498;13.446;2023-07-13T04:10:48;20.80;84.60
37518;DHT22;23366;52.498;13.446;2023-07-13T04:13:14;20.90;84.30
37518;DHT22;23366;52.498;13.446;2023-07-13T04:15:40;21.00;83.80
37518;DHT22;23366;52.498;13.446;2023-07-13T04:18:05;21.20;83.60
37518;DHT22;23366;52.498;13.446;2023-07-13T04:20:31;21.20;83.10
37518;DHT22;23366;52.498;13.446;2023-07-13T04:22:57;21.40;82.80
37518;DHT22;23366;52.498;13.446;2023-07-13T04:25:23;21.40;82.70
37518;DHT22;23366;52.498;13.446;2023-07-13T04:27:49;21.60;82.30
37518;DHT22;23366;52.498;13.446;2023-07-13T04:30:15;21.70;82.00
37518;DHT22;23366;52.498;13.446;2023-07-13T04:32:40;21.80;81.80
37518;DHT22;23366;52.498;13.446;2023-07-13T04:35:06;21.90;81.60
37518;DHT22;23366;52.498;13.446;2023-07-13T04:37:32;22.00;81.30
37518;DHT22;23366;52.498;13.446;2023-07-13T04:39:57;22.10;80.80
37518;DHT22;23366;52.498;13.446;2023-07-13T04:42:23;22.30;80.40
37518;DHT22;23366;52.498;13.446;2023-07-13T04:44:49;22.60;79.80
37518;DHT22;23366;52.498;13.446;2023-07-13T04:47:14;22.80;79.10
37518;DHT22;23366;52.498;13.446;2023-07-13T04:49:40;23.10;78.30
37518;DHT22;23366;52.498;13.446;2023-07-13T04:52:06;23.50;76.90
37518;DHT22;23366;52.498;13.446;2023-07-13T04:54:33;24.00;75.40
37518;DHT22;23366;52.498;13.446;2023-07-13T04:56:58;24.70;73.70
37518;DHT22;23366;52.498;13.446;2023-07-13T04:59:24;25.70;71.50
37518;DHT22;23366;52.498;13.446;2023-07-13T05:01:49;26.90;68.50
37518;DHT22;23366;52.498;13.446;2023-07-13T05:04:14;28.10;66.00
37518;DHT22;23366;52.498;13.446;2023-07-13T05:06:40;29.20;63.60
37518;DHT22;23366;52.498;13.446;2023-07-13T05:09:05;30.20;61.50
37518;DHT22;23366;52.498;13.446;2023-07-13T05:11:32;31.20;59.90
37518;DHT22;23366;52.498;13.446;2023-07-13T05:13:58;32.00;58.50
37518;DHT22;23366;52.498;13.446;2023-07-13T05:16:23;32.80;57.20
37518;DHT22;23366;52.498;13.446;2023-07-13T05:18:49;33.40;56.00
37518;DHT22;23366;52.498;13.446;2023-07-13T05:21:14;34.10;55.20
37518;DHT22;23366;52.498;13.446;2023-07-13T05:23:46;34.70;54.00
37518;DHT22;23366;52.498;13.446;2023-07-13T05:26:12;35.30;53.40
37518;DHT22;23366;52.498;13.446;2023-07-13T05:28:38;35.80;52.40
37518;DHT22;23366;52.498;13.446;2023-07-13T05:31:04;36.30;51.90
37518;DHT22;23366;52.498;13.446;2023-07-13T05:33:30;36.60;51.20
37518;DHT22;23366;52.498;13.446;2023-07-13T05:35:56;36.90;50.60
37518;DHT22;23366;52.498;13.446;2023-07-13T05:38:22;37.20;50.20
37518;DHT22;23366;52.498;13.446;2023-07-13T05:40:51;37.50;50.10
37518;DHT22;23366;52.498;13.446;2023-07-13T05:43:16;37.70;49.60
37518;DHT22;23366;52.498;13.446;2023-07-13T05:45:42;37.90;49.30
37518;DHT22;23366;52.498;13.446;2023-07-13T05:48:07;38.00;49.20
37518;DHT22;23366;52.498;13.446;2023-07-13T05:50:33;38.20;49.00
37518;DHT22;23366;52.498;13.446;2023-07-13T05:52:58;38.50;48.60
37518;DHT22;23366;52.498;13.446;2023-07-13T05:55:24;38.70;48.30
37518;DHT22;23366;52.498;13.446;2023-07-13T05:57:49;38.90;48.00
37518;DHT22;23366;52.498;13.446;2023-07-13T06:00:18;38.80;47.90
37518;DHT22;23366;52.498;13.446;2023-07-13T06:02:43;39.00;47.80
37518;DHT22;23366;52.498;13.446;2023-07-13T06:05:09;39.10;47.60
37518;DHT22;23366;52.498;13.446;2023-07-13T06:07:34;39.30;47.30
37518;DHT22;23366;52.498;13.446;2023-07-13T06:10:00;39.60;47.10
37518;DHT22;23366;52.498;13.446;2023-07-13T06:12:26;39.70;46.80
37518;DHT22;23366;52.498;13.446;2023-07-13T06:14:52;39.90;46.50
37518;DHT22;23366;52.498;13.446;2023-07-13T06:17:17;40.10;46.50
37518;DHT22;23366;52.498;13.446;2023-07-13T06:19:43;40.20;46.10
37518;DHT22;23366;52.498;13.446;2023-07-13T06:22:08;40.50;45.90
37518;DHT22;23366;52.498;13.446;2023-07-13T06:24:34;40.60;45.70
37518;DHT22;23366;52.498;13.446;2023-07-13T06:26:59;40.80;45.60
37518;DHT22;23366;52.498;13.446;2023-07-13T06:29:25;41.00;45.50
37518;DHT22;23366;52.498;13.446;2023-07-13T06:31:50;41.20;45.20
37518;DHT22;23366;52.498;13.446;2023-07-13T06:34:16;41.40;45.10
37518;DHT22;23366;52.498;13.446;2023-07-13T06:36:41;41.70;44.80
37518;DHT22;23366;52.498;13.446;2023-07-13T06:39:07;41.70;44.50
37518;DHT22;23366;52.498;13.446;2023-07-13T06:41:33;42.10;44.30
37518;DHT22;23366;52.498;13.446;2023-07-13T06:43:59;42.30;44.10
37518;DHT22;23366;52.498;13.446;2023-07-13T06:46:24;42.50;43.70
37518;DHT22;23366;52.498;13.446;2023-07-13T06:48:50;42.70;43.80
37518;DHT22;23366;52.498;13.446;2023-07-13T06:51:16;42.90;43.50
37518;DHT22;23366;52.498;13.446;2023-07-13T06:53:42;43.10;43.10
37518;DHT22;23366;52.498;13.446;2023-07-13T06:56:09;43.50;42.90
37518;DHT22;23366;52.498;13.446;2023-07-13T06:58:35;43.50;42.50
37518;DHT22;23366;52.498;13.446;2023-07-13T07:01:01;43.70;42.20
37518;DHT22;23366;52.498;13.446;2023-07-13T07:03:26;43.80;42.00
37518;DHT22;23366;52.498;13.446;2023-07-13T07:05:52;44.20;41.90
37518;DHT22;23366;52.498;13.446;2023-07-13T07:08:18;44.40;41.70
37518;DHT22;23366;52.498;13.446;2023-07-13T07:10:44;44.80;41.30
37518;DHT22;23366;52.498;13.446;2023-07-13T07:13:10;45.30;40.90
37518;DHT22;23366;52.498;13.446;2023-07-13T07:15:36;45.60;40.80
37518;DHT22;23366;52.498;13.446;2023-07-13T07:18:01;46.00;40.50
37518;DHT22;23366;52.498;13.446;2023-07-13T07:20:27;46.10;40.20
37518;DHT22;23366;52.498;13.446;2023-07-13T07:22:53;46.40;39.90
37518;DHT22;23366;52.498;13.446;2023-07-13T07:25:18;46.70;39.60
37518;DHT22;23366;52.498;13.446;2023-07-13T07:27:44;46.90;39.30
37518;DHT22;23366;52.498;13.446;2023-07-13T07:30:10;47.30;39.00
37518;DHT22;23366;52.498;13.446;2023-07-13T07:32:37;47.50;38.60
37518;DHT22;23366;52.498;13.446;2023-07-13T07:35:02;47.70;38.50
37518;DHT22;23366;52.498;13.446;2023-07-13T07:37:28;47.80;38.30
37518;DHT22;23366;52.498;13.446;2023-07-13T07:39:53;47.90;38.10
37518;DHT22;23366;52.498;13.446;2023-07-13T07:42:19;47.10;38.20
37518;DHT22;23366;52.498;13.446;2023-07-13T07:44:44;45.70;39.00
37518;DHT22;23366;52.498;13.446;2023-07-13T07:47:10;44.40;39.60
37518;DHT22;23366;52.498;13.446;2023-07-13T07:49:36;43.10;40.50
37518;DHT22;23366;52.498;13.446;2023-07-13T07:52:02;42.00;41.40
37518;DHT22;23366;52.498;13.446;2023-07-13T07:54:27;40.70;41.90
37518;DHT22;23366;52.498;13.446;2023-07-13T07:56:53;40.30;42.80
37518;DHT22;23366;52.498;13.446;2023-07-13T07:59:19;40.90;42.50
37518;DHT22;23366;52.498;13.446;2023-07-13T08:01:44;41.00;42.30
37518;DHT22;23366;52.498;13.446;2023-07-13T08:04:11;40.80;42.10
37518;DHT22;23366;52.498;13.446;2023-07-13T08:06:37;39.80;42.90
37518;DHT22;23366;52.498;13.446;2023-07-13T08:09:03;38.70;43.90
37518;DHT22;23366;52.498;13.446;2023-07-13T08:11:29;37.70;44.60
37518;DHT22;23366;52.498;13.446;2023-07-13T08:13:55;36.70;45.50
37518;DHT22;23366;52.498;13.446;2023-07-13T08:16:23;36.40;46.00
37518;DHT22;23366;52.498;13.446;2023-07-13T08:18:49;35.90;46.40
37518;DHT22;23366;52.498;13.446;2023-07-13T08:21:14;35.40;47.20
37518;DHT22;23366;52.498;13.446;2023-07-13T08:23:40;35.30;47.70
37518;DHT22;23366;52.498;13.446;2023-07-13T08:26:05;36.10;46.90
37518;DHT22;23366;52.498;13.446;2023-07-13T08:28:32;36.30;46.50
37518;DHT22;23366;52.498;13.446;2023-07-13T08:31:03;36.10;46.40
37518;DHT22;23366;52.498;13.446;2023-07-13T08:33:28;35.80;46.60
37518;DHT22;23366;52.498;13.446;2023-07-13T08:35:54;35.50;47.00
37518;DHT22;23366;52.498;13.446;2023-07-13T08:38:19;35.30;46.90
37518;DHT22;23366;52.498;13.446;2023-07-13T08:40:50;35.20;46.70
37518;DHT22;23366;52.498;13.446;2023-07-13T08:43:20;34.90;46.90
37518;DHT22;23366;52.498;13.446;2023-07-13T08:45:47;34.40;47.60
37518;DHT22;23366;52.498;13.446;2023-07-13T08:48:31;33.90;48.30
37518;DHT22;23366;52.498;13.446;2023-07-13T08:51:02;33.70;48.90
37518;DHT22;23366;52.498;13.446;2023-07-13T08:53:37;33.40;49.50
37518;DHT22;23366;52.498;13.446;2023-07-13T08:56:07;33.00;49.80
37518;DHT22;23366;52.498;13.446;2023-07-13T08:58:36;32.60;50.40
37518;DHT22;23366;52.498;13.446;2023-07-13T09:01:31;32.10;50.90
37518;DHT22;23366;52.498;13.446;2023-07-13T09:04:05;31.70;51.70
37518;DHT22;23366;52.498;13.446;2023-07-13T09:06:48;31.50;52.10
37518;DHT22;23366;52.498;13.446;2023-07-13T09:09:34;32.20;52.00
37518;DHT22;23366;52.498;13.446;2023-07-13T09:12:35;34.10;49.70
37518;DHT22;23366;52.498;13.446;2023-07-13T09:15:05;36.00;47.50
37518;DHT22;23366;52.498;13.446;2023-07-13T09:17:48;37.70;45.80
37518;DHT22;23366;52.498;13.446;2023-07-13T09:20:32;39.30;44.20
37518;DHT22;23366;52.498;13.446;2023-07-13T09:23:02;40.80;42.70
37518;DHT22;23366;52.498;13.446;2023-07-13T09:25:32;41.70;41.20
37518;DHT22;23366;52.498;13.446;2023-07-13T09:28:20;42.50;40.60
37518;DHT22;23366;52.498;13.446;2023-07-13T09:30:56;43.10;40.20
37518;DHT22;23366;52.498;13.446;2023-07-13T09:33:26;43.60;39.50
37518;DHT22;23366;52.498;13.446;2023-07-13T09:35:55;43.70;39.20
37518;DHT22;23366;52.498;13.446;2023-07-13T09:38:22;43.80;39.30
37518;DHT22;23366;52.498;13.446;2023-07-13T09:41:26;43.70;39.20
37518;DHT22;23366;52.498;13.446;2023-07-13T09:44:09;43.50;39.20
37518;DHT22;23366;52.498;13.446;2023-07-13T09:46:35;43.10;39.30
37518;DHT22;23366;52.498;13.446;2023-07-13T09:49:00;42.30;39.70
37518;DHT22;23366;52.498;13.446;2023-07-13T09:51:26;41.40;40.30
37518;DHT22;23366;52.498;13.446;2023-07-13T09:53:52;40.20;40.40
37518;DHT22;23366;52.498;13.446;2023-07-13T09:56:22;38.80;41.10
37518;DHT22;23366;52.498;13.446;2023-07-13T09:58:48;38.10;41.30
37518;DHT22;23366;52.498;13.446;2023-07-13T10:01:14;37.30;42.00
37518;DHT22;23366;52.498;13.446;2023-07-13T10:03:53;36.50;43.00
37518;DHT22;23366;52.498;13.446;2023-07-13T10:06:21;35.80;43.90
37518;DHT22;23366;52.498;13.446;2023-07-13T10:08:50;35.30;44.30
37518;DHT22;23366;52.498;13.446;2023-07-13T10:11:28;34.80;44.70
37518;DHT22;23366;52.498;13.446;2023-07-13T10:14:00;34.20;45.30
37518;DHT22;23366;52.498;13.446;2023-07-13T10:16:30;33.60;45.90
37518;DHT22;23366;52.498;13.446;2023-07-13T10:19:05;33.20;46.80
37518;DHT22;23366;52.498;13.446;2023-07-13T10:21:39;33.00;47.60
37518;DHT22;23366;52.498;13.446;2023-07-13T10:24:17;33.00;47.60
37518;DHT22;23366;52.498;13.446;2023-07-13T10:26:51;32.90;47.60
37518;DHT22;23366;52.498;13.446;2023-07-13T10:29:18;32.50;47.70
37518;DHT22;23366;52.498;13.446;2023-07-13T10:31:45;32.20;47.60
37518;DHT22;23366;52.498;13.446;2023-07-13T10:34:12;32.10;47.70
37518;DHT22;23366;52.498;13.446;2023-07-13T10:36:47;31.80;48.10
37518;DHT22;23366;52.498;13.446;2023-07-13T10:39:20;31.60;48.80
37518;DHT22;23366;52.498;13.446;2023-07-13T10:42:02;31.50;49.40
37518;DHT22;23366;52.498;13.446;2023-07-13T10:44:31;31.50;49.10
37518;DHT22;23366;52.498;13.446;2023-07-13T10:47:00;31.30;48.30
37518;DHT22;23366;52.498;13.446;2023-07-13T10:49:31;31.30;48.50
37518;DHT22;23366;52.498;13.446;2023-07-13T10:51:57;31.20;48.60
37518;DHT22;23366;52.498;13.446;2023-07-13T10:54:31;31.10;48.70
37518;DHT22;23366;52.498;13.446;2023-07-13T10:57:26;31.10;48.20
37518;DHT22;23366;52.498;13.446;2023-07-13T11:02:38;31.00;48.20
37518;DHT22;23366;52.498;13.446;2023-07-13T11:05:26;31.00;48.50
37518;DHT22;23366;52.498;13.446;2023-07-13T11:08:13;31.10;48.80
37518;DHT22;23366;52.498;13.446;2023-07-13T11:10:53;31.20;48.70
37518;DHT22;23366;52.498;13.446;2023-07-13T11:13:59;31.10;47.90
37518;DHT22;23366;52.498;13.446;2023-07-13T11:16:54;31.10;48.20
37518;DHT22;23366;52.498;13.446;2023-07-13T11:24:56;30.90;48.60
37518;DHT22;23366;52.498;13.446;2023-07-13T11:27:42;30.80;48.60
37518;DHT22;23366;52.498;13.446;2023-07-13T11:30:31;30.70;48.30
37518;DHT22;23366;52.498;13.446;2023-07-13T11:33:20;30.50;48.40
37518;DHT22;23366;52.498;13.446;2023-07-13T11:35:53;30.40;48.30
37518;DHT22;23366;52.498;13.446;2023-07-13T11:38:37;30.40;48.50
37518;DHT22;23366;52.498;13.446;2023-07-13T11:41:26;30.20;48.60
37518;DHT22;23366;52.498;13.446;2023-07-13T11:44:11;30.20;47.80
37518;DHT22;23366;52.498;13.446;2023-07-13T11:46:36;30.10;48.60
37518;DHT22;23366;52.498;13.446;2023-07-13T11:49:05;30.10;48.80
37518;DHT22;23366;52.498;13.446;2023-07-13T11:51:34;30.00;49.50
37518;DHT22;23366;52.498;13.446;2023-07-13T11:54:04;29.90;49.80
37518;DHT22;23366;52.498;13.446;2023-07-13T11:56:31;29.90;50.20
37518;DHT22;23366;52.498;13.446;2023-07-13T11:59:04;29.80;49.90
37518;DHT22;23366;52.498;13.446;2023-07-13T12:01:32;29.70;50.30
37518;DHT22;23366;52.498;13.446;2023-07-13T12:04:02;29.80;50.00
37518;DHT22;23366;52.498;13.446;2023-07-13T12:06:31;29.80;50.30
37518;DHT22;23366;52.498;13.446;2023-07-13T12:09:02;29.90;49.70
37518;DHT22;23366;52.498;13.446;2023-07-13T12:11:29;29.80;49.20
37518;DHT22;23366;52.498;13.446;2023-07-13T12:13:56;29.80;49.10
37518;DHT22;23366;52.498;13.446;2023-07-13T12:16:32;29.80;49.10
37518;DHT22;23366;52.498;13.446;2023-07-13T12:18:59;29.80;49.40
37518;DHT22;23366;52.498;13.446;2023-07-13T12:21:33;29.80;49.70
37518;DHT22;23366;52.498;13.446;2023-07-13T12:24:00;29.80;49.80
37518;DHT22;23366;52.498;13.446;2023-07-13T12:26:28;29.80;49.70
37518;DHT22;23366;52.498;13.446;2023-07-13T12:28:55;29.80;49.90
37518;DHT22;23366;52.498;13.446;2023-07-13T12:31:42;29.80;50.00
37518;DHT22;23366;52.498;13.446;2023-07-13T12:34:15;29.80;50.40
37518;DHT22;23366;52.498;13.446;2023-07-13T12:36:47;29.70;50.40
37518;DHT22;23366;52.498;13.446;2023-07-13T12:39:25;29.70;50.60
37518;DHT22;23366;52.498;13.446;2023-07-13T12:41:53;29.60;50.40
37518;DHT22;23366;52.498;13.446;2023-07-13T12:44:29;29.50;50.10
37518;DHT22;23366;52.498;13.446;2023-07-13T12:47:03;29.50;50.30
37518;DHT22;23366;52.498;13.446;2023-07-13T12:49:31;29.50;50.00
37518;DHT22;23366;52.498;13.446;2023-07-13T12:52:02;29.50;50.30
37518;DHT22;23366;52.498;13.446;2023-07-13T12:54:29;29.50;50.20
37518;DHT22;23366;52.498;13.446;2023-07-13T12:56:56;29.50;50.50
37518;DHT22;23366;52.498;13.446;2023-07-13T12:59:23;29.50;50.40
37518;DHT22;23366;52.498;13.446;2023-07-13T13:01:51;29.60;50.00
37518;DHT22;23366;52.498;13.446;2023-07-13T13:04:18;29.50;49.70
37518;DHT22;23366;52.498;13.446;2023-07-13T13:06:47;29.60;50.10
37518;DHT22;23366;52.498;13.446;2023-07-13T13:09:15;29.70;50.10
37518;DHT22;23366;52.498;13.446;2023-07-13T13:11:41;29.70;49.80
37518;DHT22;23366;52.498;13.446;2023-07-13T13:14:07;29.60;49.90
37518;DHT22;23366;52.498;13.446;2023-07-13T13:16:47;29.50;49.50
37518;DHT22;23366;52.498;13.446;2023-07-13T13:19:25;29.40;49.50
37518;DHT22;23366;52.498;13.446;2023-07-13T13:21:52;29.40;49.70
37518;DHT22;23366;52.498;13.446;2023-07-13T13:24:21;29.30;49.80
37518;DHT22;23366;52.498;13.446;2023-07-13T13:26:49;29.20;50.20
37518;DHT22;23366;52.498;13.446;2023-07-13T13:29:20;29.30;50.50
37518;DHT22;23366;52.498;13.446;2023-07-13T13:31:46;29.30;50.10
37518;DHT22;23366;52.498;13.446;2023-07-13T13:34:17;29.30;50.10
37518;DHT22;23366;52.498;13.446;2023-07-13T13:36:44;29.30;50.50
37518;DHT22;23366;52.498;13.446;2023-07-13T13:39:23;29.40;50.80
37518;DHT22;23366;52.498;13.446;2023-07-13T13:41:53;29.40;50.60
37518;DHT22;23366;52.498;13.446;2023-07-13T13:44:19;29.30;50.70
37518;DHT22;23366;52.498;13.446;2023-07-13T13:46:47;29.30;50.80
37518;DHT22;23366;52.498;13.446;2023-07-13T13:49:15;29.30;50.60
37518;DHT22;23366;52.498;13.446;2023-07-13T13:51:42;29.30;50.40
37518;DHT22;23366;52.498;13.446;2023-07-13T13:54:13;29.20;49.80
37518;DHT22;23366;52.498;13.446;2023-07-13T13:56:43;29.10;49.80
37518;DHT22;23366;52.498;13.446;2023-07-13T13:59:10;29.00;50.20
37518;DHT22;23366;52.498;13.446;2023-07-13T14:01:36;29.00;50.60
37518;DHT22;23366;52.498;13.446;2023-07-13T14:04:01;28.90;50.90
37518;DHT22;23366;52.498;13.446;2023-07-13T14:06:27;28.90;51.20
37518;DHT22;23366;52.498;13.446;2023-07-13T14:08:53;28.80;51.10
37518;DHT22;23366;52.498;13.446;2023-07-13T14:11:21;28.70;51.00
37518;DHT22;23366;52.498;13.446;2023-07-13T14:13:55;28.70;50.80
37518;DHT22;23366;52.498;13.446;2023-07-13T14:16:24;28.80;50.90
37518;DHT22;23366;52.498;13.446;2023-07-13T14:18:53;28.80;50.90
37518;DHT22;23366;52.498;13.446;2023-07-13T14:21:20;28.90;51.10
37518;DHT22;23366;52.498;13.446;2023-07-13T14:23:49;28.80;50.90
37518;DHT22;23366;52.498;13.446;2023-07-13T14:26:18;28.70;50.40
37518;DHT22;23366;52.498;13.446;2023-07-13T14:28:47;28.70;50.00
37518;DHT22;23366;52.498;13.446;2023-07-13T14:31:15;28.80;50.30
37518;DHT22;23366;52.498;13.446;2023-07-13T14:33:42;28.70;50.80
37518;DHT22;23366;52.498;13.446;2023-07-13T14:36:32;28.50;51.40
37518;DHT22;23366;52.498;13.446;2023-07-13T14:39:10;28.30;52.00
37518;DHT22;23366;52.498;13.446;2023-07-13T14:41:36;28.20;52.20
37518;DHT22;23366;52.498;13.446;2023-07-13T14:44:11;28.10;52.10
37518;DHT22;23366;52.498;13.446;2023-07-13T14:46:37;28.20;52.00
37518;DHT22;23366;52.498;13.446;2023-07-13T14:49:28;28.20;52.10
37518;DHT22;23366;52.498;13.446;2023-07-13T14:51:56;28.30;51.80
37518;DHT22;23366;52.498;13.446;2023-07-13T14:54:23;28.40;51.60
37518;DHT22;23366;52.498;13.446;2023-07-13T14:56:49;28.60;51.70
37518;DHT22;23366;52.498;13.446;2023-07-13T14:59:15;28.70;51.70
37518;DHT22;23366;52.498;13.446;2023-07-13T15:01:44;28.60;52.40
37518;DHT22;23366;52.498;13.446;2023-07-13T15:04:10;28.50;51.60
37518;DHT22;23366;52.498;13.446;2023-07-13T15:06:53;28.40;51.50
37518;DHT22;23366;52.498;13.446;2023-07-13T15:09:19;28.30;51.60
37518;DHT22;23366;52.498;13.446;2023-07-13T15:11:45;28.20;51.50
37518;DHT22;23366;52.498;13.446;2023-07-13T15:14:10;28.20;51.90
37518;DHT22;23366;52.498;13.446;2023-07-13T15:16:36;28.00;51.90
37518;DHT22;23366;52.498;13.446;2023-07-13T15:19:01;27.90;51.80
37518;DHT22;23366;52.498;13.446;2023-07-13T15:21:28;27.90;52.10
37518;DHT22;23366;52.498;13.446;2023-07-13T15:24:00;27.90;51.90
37518;DHT22;23366;52.498;13.446;2023-07-13T15:26:25;27.90;51.90
37518;DHT22;23366;52.498;13.446;2023-07-13T15:28:51;27.80;51.60
37518;DHT22;23366;52.498;13.446;2023-07-13T15:31:24;27.70;51.30
37518;DHT22;23366;52.498;13.446;2023-07-13T15:33:55;27.60;50.80
37518;DHT22;23366;52.498;13.446;2023-07-13T15:36:23;27.50;50.80